Decoded Metar for CYWE ( in ) (IATA:) | Meteo·Mobile Aviation Weather
aviador You're here:

CYWE Decoded Metar

in
Report Time2018-10-18 08:00:00
UTC Time2018-10-18 08:59:54
Flight Rules lifr LIFR
Wind270° at 10 kt
W.Decomp.*RWY 31: 7.7 kt HW 6.4 kt LCW
W.Rank270° ranks 9
Current wind is above 270° avg. (7.1)
Visibility1006 m
Phenomena:Mist
Clouds:N/A
Ceiling300 ft
Temp-2°C
Dew Point-2°C (100% RH)
AAT-7.9°C
QNH999 hPa
Raw Report
METAR CYWE 180800Z AUTO 27010KT 5/8SM BR VV003 M02/M02 A2950 RMK ICG SLP018=

Extra information for CYWE:More info

Social comments